Observations for RIMINI CIV IT-AFB, Italy (LIPR)

LIPR 100220Z AUTO 28011KT 9999 NCD 10/M01 Q1010 
LIPR 100150Z AUTO 27015KT 9999 NCD 13/M01 Q1010 
LIPR 100120Z AUTO 26013KT 9999 NCD 12/M02 Q1010 
LIPR 100050Z AUTO 27013G23KT 9999 NCD 13/M02 Q1009  
LIPR 100020Z AUTO 27012KT 9999 NCD 12/M01 Q1009 
LIPR 092350Z AUTO 25009KT 9999 NCD 11/00 Q1009  
LIPR 092320Z AUTO 24005KT 9999 NCD 09/01 Q1009  
LIPR 092250Z AUTO 22006KT 9999 NCD 09/01 Q1009  
LIPR 092220Z AUTO 25008KT 9999 NCD 10/00 Q1009  
LIPR 092150Z 25009KT CAVOK 09/02 Q1009  
LIPR 092120Z 22005KT CAVOK 05/03 Q1009  
LIPR 092050Z 22004KT 190V250 CAVOK 04/02 Q1008  
LIPR 092020Z 18003KT CAVOK 05/03 Q1008  
LIPR 091950Z 18003KT CAVOK 05/02 Q1008  
LIPR 091920Z 19003KT CAVOK 06/03 Q1008  
LIPR 091850Z 21002KT CAVOK 06/03 Q1008  
LIPR 091820Z 17003KT CAVOK 07/03 Q1008  
LIPR 091750Z 21005KT CAVOK 08/03 Q1008  
LIPR 091720Z 22005KT CAVOK 08/04 Q1008  
LIPR 091650Z 23005KT CAVOK 08/04 Q1008  
LIPR 091620Z 25006KT CAVOK 08/05 Q1007  
LIPR 091550Z 24004KT 200V280 CAVOK 09/05 Q1007  
LIPR 091520Z 28006KT 250V320 CAVOK 10/06 Q1007  
LIPR 091450Z 32009KT 290V350 CAVOK 11/06 Q1007  
LIPR 091420Z 33009KT CAVOK 12/07 Q1006  
LIPR 091350Z 34011KT CAVOK 12/08 Q1006  
LIPR 091320Z 33009KT 270V010 CAVOK 13/09 Q1005  
LIPR 091250Z 24019KT CAVOK 18/07 Q1005  
LIPR 091220Z 24022G32KT 9999 FEW040 18/07 Q1004 
LIPR 091150Z 24020G32KT 220V280 9999 FEW040 18/07 Q1004 
LIPR 091120Z 25015G26KT 9999 FEW040 18/07 Q1005 
LIPR 091050Z 24013G23KT 9999 FEW030 18/07 Q1005 
LIPR 091020Z 21009KT 180V240 9999 FEW030 16/07 Q1006
LIPR 090950Z 22012KT 200V260 9999 FEW030 17/07 Q1006
LIPR 090920Z 22010KT 9999 FEW030 16/07 Q1007
LIPR 090850Z 21011G24KT 9999 FEW030 15/07 Q1007 
LIPR 090820Z 18009KT 9999 FEW030 14/07 Q1007
LIPR 090750Z 18010KT CAVOK 14/07 Q1007  
LIPR 090720Z 19012KT CAVOK 13/06 Q1008  
LIPR 090650Z 20013KT CAVOK 13/06 Q1008  
LIPR 090620Z 12006KT CAVOK 10/04 Q1008  
LIPR 090550Z AUTO 14006KT 9999 NCD 08/03 Q1009  
LIPR 090520Z AUTO 13006KT 9999 NCD 06/02 Q1009  
LIPR 090450Z AUTO 14004KT 9999 NCD 05/01 Q1010  
LIPR 090420Z AUTO 16003KT 9999 NCD 06/01 Q1010  
LIPR 090350Z AUTO 16004KT 9999 NCD 07/01 Q1011  
LIPR 090320Z AUTO 17003KT 9999 NCD 06/M01 Q1011 
LIPR 090250Z AUTO 17003KT 9999 NCD 07/M01 Q1012 
LIPR 090220Z AUTO 19006KT 9999 NCD 07/M02 Q1013 
LIPR 090150Z AUTO 18005KT 9999 NCD 07/M03 Q1013